Terminal Aerodrome Forecast
Issued by NWS

Home | Current Version | Previous Version | Text Only | Print | Product List | Glossary On
Versions: 1 2 3 4 5 6 7 8 9 10 11 12 13 14 15 16 17 18 19 20 21 22 23
000
FTUS45 KABQ 022300
TAFLVS
TAF
KLVS 022328Z 0300/0324 19012G22KT 5SM BR OVC010
      TEMPO 0300/0302 2SM BR BKN004
     FM030200 20025G35KT P6SM VCSH BKN025 BKN070
     FM030700 23020G32KT P6SM VCSH OVC015
      TEMPO 0307/0311 24015KT 5SM -SN
     FM031300 24015KT P6SM SCT040 SCT070
     FM031800 25020G30KT P6SM SCT040 SCT080=

USA.gov is the U.S. government's official web portal to all federal, state and local government web resources and services.